Shipshewana, IN

11:36 AM EDT on May 05, 2015 (GMT -0400)
Goshen Municipal | | Change Station
CLOSE
Current Station
Airport
Location: Goshen,
Elevation: 827 ft
Nearby Weather Stations

Elev 827 ft 41.53 °N, 85.79 °W | Updated 43 minutes ago

Overcast
Overcast
65 °F
Feels Like 65 °F
N
6
Wind Variable Wind from SSE

Today
High -- | Low -- °F
--% Chance of Precip.
Yesterday
High -- | Low -- °F
Precip. -- in
6:34 AM 8:44 PM
Full, 98% visible
Pressure 30.21 in
Visibility 5.0 miles
Clouds Few 500 ft
Mostly Cloudy 8000 ft
Overcast 9500 ft
Dew Point 62 °F
Humidity 90%
Rainfall 0.43 in
Snow Depth Not available.
UV 2 out of 12
Pollen .50 out of 12
Air Quality Not available.
Flu Activity Local Activity
METAR KGSH 051453Z AUTO 16005KT 5SM BR FEW005 BKN080 OVC095 18/17 A3022 RMK AO2 RAE09 SLP230 P0000 60018 T01830167 58001

More Conditions Fewer Conditions

Pressure 30.21 in
Visibility 5.0 miles
Clouds Few 500 ft
Mostly Cloudy 8000 ft
Overcast 9500 ft
Dew Point 62 °F
Humidity 90%
Rainfall 0.43 in
Snow Depth Not available.
UV 2 out of 12
Pollen .50 out of 12
Air Quality Not available.
Flu Activity Local Activity
METAR KGSH 051453Z AUTO 16005KT 5SM BR FEW005 BKN080 OVC095 18/17 A3022 RMK AO2 RAE09 SLP230 P0000 60018 T01830167 58001

More Conditions Fewer Conditions

10-Day Weather Forecast

Almanac

Astronomy

May. 05, 2015 Rise Set
Actual Time
Civil Twilight
Nautical Twilight
Astronomical Twilight
Moon
Length of Visible Light
Length of Day
Tomorrow will be .
, % of the Moon is Illuminated

Today's Extremes

State Highs State Lows

Community

WunderPhotos

Upload Photos

1,818,918 photos uploaded!

WunderBlogs® & News

Nearby

Air Quality

  Air Quality AQ Index Pollutant
Not available.

Snow Depth

Station Depth Elevation

Earthquake Activity

City Distance Mag. Time & Date
Minimum magnitude displayed is 2.5.

Coastal Water Temperatures

Place Temperature

Stations

Nearby Weather Stations

Station Location Temp. Windchill Dew Point Humidity Wind Precip. Elev Updated Type